Time;durP1;ratioP1;P1;durP2;ratioP2;P2;SDS_P1;SDS_P2;PMS_P1;PMS_P2;Temp;Humidity;BMP_temperature;BMP_pressure;BME280_temperature;BME280_humidity;BME280_pressure;Samples;Min_cycle;Max_cycle;Signal;HPM_P1;HPM_P2
2022/11/06 00:01:36;;;;;;;4.10;2.30;;;;;;;8.48;74.11;100927.16;5048684;28;20585;-81
2022/11/06 00:04:02;;;;;;;4.20;2.30;;;;;;;8.46;73.79;100927.22;5059555;28;20213;-82
2022/11/06 00:09:14;;;;;;;3.00;2.20;;;;;;;8.45;73.46;100920.19;5059583;28;20283;-82
2022/11/06 00:11:41;;;;;;;2.33;1.90;;;;;;;8.45;73.37;100922.00;5056747;28;20569;-81
2022/11/06 00:14:09;;;;;;;2.53;2.00;;;;;;;8.42;74.31;100911.56;5060769;28;20219;-83
2022/11/06 00:16:38;;;;;;;3.87;1.93;;;;;;;8.45;73.98;100916.69;5049278;28;20202;-82
2022/11/06 00:19:05;;;;;;;3.27;2.33;;;;;;;8.44;75.07;100917.63;5058078;28;20232;-81
2022/11/06 00:21:32;;;;;;;5.70;2.00;;;;;;;8.45;74.44;100916.69;5055485;28;20236;-82
2022/11/06 00:24:01;;;;;;;4.10;2.27;;;;;;;8.45;74.62;100911.38;5058168;28;20209;-82
2022/11/06 00:26:30;;;;;;;3.90;2.00;;;;;;;8.45;74.37;100912.25;5055516;28;20217;-82
2022/11/06 00:28:58;;;;;;;4.40;2.20;;;;;;;8.44;74.57;100910.53;5059845;28;20229;-82
2022/11/06 00:31:25;;;;;;;3.83;2.30;;;;;;;8.44;74.82;100905.22;5054692;28;20589;-82
2022/11/06 00:33:56;;;;;;;3.03;2.33;;;;;;;8.44;75.00;100893.72;5057746;28;20618;-82
2022/11/06 00:36:23;;;;;;;3.67;2.07;;;;;;;8.45;75.38;100895.47;5058686;28;20205;-82
2022/11/06 00:38:52;;;;;;;3.30;2.40;;;;;;;8.46;75.03;100886.56;5057552;28;20240;-82
2022/11/06 00:41:18;;;;;;;3.20;2.13;;;;;;;8.45;74.93;100888.34;5057172;28;20259;-82
2022/11/06 00:43:48;;;;;;;3.87;2.60;;;;;;;8.44;75.50;100888.44;5056000;28;20692;-82
2022/11/06 00:46:15;;;;;;;4.37;2.30;;;;;;;8.47;75.49;100883.81;5055703;28;20201;-82
2022/11/06 00:48:42;;;;;;;4.70;2.50;;;;;;;8.49;75.70;100883.75;5057277;28;20220;-82
2022/11/06 00:51:14;;;;;;;3.53;2.40;;;;;;;8.51;75.63;100881.88;5054829;28;20202;-81
2022/11/06 00:53:40;;;;;;;5.13;2.80;;;;;;;8.53;75.12;100887.97;5056846;28;20209;-82
2022/11/06 00:56:08;;;;;;;6.80;3.03;;;;;;;8.54;74.92;100889.69;5057626;28;20206;-82
2022/11/06 00:58:35;;;;;;;8.20;3.03;;;;;;;8.54;74.90;100882.59;5052146;28;20233;-82
2022/11/06 01:01:06;;;;;;;4.97;2.70;;;;;;;8.54;75.12;100887.03;5052525;28;20225;-82
2022/11/06 01:03:33;;;;;;;2.97;2.50;;;;;;;8.54;74.49;100887.91;5047510;28;20206;-82
2022/11/06 01:06:04;;;;;;;5.37;2.97;;;;;;;8.55;74.74;100886.09;5051843;28;20236;-82
2022/11/06 01:08:32;;;;;;;3.27;2.27;;;;;;;8.53;74.96;100882.66;5053862;28;20255;-83
2022/11/06 01:10:59;;;;;;;5.67;2.40;;;;;;;8.51;75.46;100873.91;5061598;28;20212;-81
2022/11/06 01:13:25;;;;;;;3.37;2.47;;;;;;;8.51;74.84;100869.47;5059097;28;20202;-82
2022/11/06 01:15:52;;;;;;;5.60;2.47;;;;;;;8.50;75.21;100866.91;5062306;28;20200;-82
2022/11/06 01:18:18;;;;;;;3.93;2.10;;;;;;;8.52;74.48;100875.63;5060831;28;20233;-82
2022/11/06 01:20:45;;;;;;;3.83;2.13;;;;;;;8.49;75.05;100866.03;5058852;28;20212;-82
2022/11/06 01:23:11;;;;;;;5.67;2.83;;;;;;;8.46;74.94;100875.94;5060583;28;20885;-82
2022/11/06 01:25:39;;;;;;;4.70;2.40;;;;;;;8.45;74.39;100887.50;5059796;28;20211;-81
2022/11/06 01:28:05;;;;;;;6.90;2.77;;;;;;;8.43;74.97;100892.88;5057066;28;20247;-82
2022/11/06 01:30:35;;;;;;;4.60;2.33;;;;;;;8.44;74.25;100893.72;5054221;28;20680;-82
2022/11/06 01:33:02;;;;;;;5.03;2.27;;;;;;;8.42;74.67;100885.03;5058355;28;20202;-82
2022/11/06 01:35:28;;;;;;;4.03;2.77;;;;;;;8.39;75.39;100880.72;5058667;28;20569;-82
2022/11/06 01:37:54;;;;;;;4.57;2.50;;;;;;;8.42;75.43;100879.72;5059929;28;20224;-82
2022/11/06 01:40:21;;;;;;;4.13;2.50;;;;;;;8.41;74.68;100875.34;5057680;28;20202;-82
2022/11/06 01:42:49;;;;;;;3.60;2.20;;;;;;;8.38;75.21;100884.31;5054483;28;20233;-81
2022/11/06 01:45:31;;;;;;;3.23;2.60;;;;;;;8.38;75.05;100880.78;5057669;28;20202;-82
2022/11/06 01:47:57;;;;;;;4.20;2.53;;;;;;;8.38;75.91;100879.00;5059837;28;20240;-81
2022/11/06 01:50:24;;;;;;;2.77;2.47;;;;;;;8.38;75.45;100872.84;5063909;28;20204;-81
2022/11/06 01:52:51;;;;;;;3.70;2.43;;;;;;;8.38;75.57;100875.50;5063455;28;20212;-82
2022/11/06 01:55:22;;;;;;;3.70;2.47;;;;;;;8.37;74.82;100871.97;5056497;28;20210;-82
2022/11/06 01:57:51;;;;;;;4.00;2.60;;;;;;;8.35;75.60;100879.16;5059182;28;20220;-82
2022/11/06 02:00:18;;;;;;;3.87;2.77;;;;;;;8.32;75.69;100869.53;5061352;28;20216;-82
2022/11/06 02:02:45;;;;;;;4.93;2.90;;;;;;;8.30;75.88;100871.38;5060931;28;20221;-82
2022/11/06 02:05:12;;;;;;;5.30;3.10;;;;;;;8.29;75.35;100872.31;5053494;28;20202;-82
2022/11/06 02:07:40;;;;;;;3.83;2.73;;;;;;;8.28;76.13;100862.63;5058100;28;20221;-82
2022/11/06 02:10:08;;;;;;;5.30;2.97;;;;;;;8.25;75.17;100864.56;5061057;28;20209;-82
2022/11/06 02:12:44;;;;;;;5.40;3.23;;;;;;;8.24;75.54;100860.25;5062512;28;20202;-82
2022/11/06 02:15:23;;;;;;;4.13;2.50;;;;;;;8.20;76.58;100872.78;5061520;28;20652;-82
2022/11/06 02:18:00;;;;;;;3.30;3.00;;;;;;;8.21;76.42;100868.34;5060734;28;20239;-82
2022/11/06 02:20:34;;;;;;;4.93;3.10;;;;;;;8.16;76.65;100868.56;5056125;28;20623;-83
2022/11/06 02:23:20;;;;;;;5.83;3.47;;;;;;;8.14;76.13;100870.44;5053919;28;20225;-82
2022/11/06 02:25:52;;;;;;;4.37;2.90;;;;;;;8.12;76.40;100867.00;5061139;28;20201;-82
2022/11/06 02:28:26;;;;;;;5.20;3.00;;;;;;;8.11;76.73;100867.06;5061884;28;20225;-82
2022/11/06 02:30:56;;;;;;;6.47;3.50;;;;;;;8.12;76.78;100866.13;5055543;28;20212;-82
2022/11/06 02:33:29;;;;;;;5.13;3.10;;;;;;;8.11;76.07;100861.75;5060660;28;20228;-82
2022/11/06 02:36:01;;;;;;;4.73;3.23;;;;;;;8.11;76.83;100859.13;5059648;28;20197;-82
2022/11/06 02:38:33;;;;;;;5.60;2.97;;;;;;;8.13;76.84;100859.91;5057394;28;20217;-82
2022/11/06 02:41:04;;;;;;;5.83;3.17;;;;;;;8.11;76.65;100853.81;5055065;28;20209;-82
2022/11/06 02:43:39;;;;;;;5.20;3.10;;;;;;;8.08;77.08;100854.81;5063724;28;20244;-82
2022/11/06 02:46:10;;;;;;;5.40;3.93;;;;;;;8.07;77.53;100850.44;5046622;28;20201;-82
2022/11/06 02:48:41;;;;;;;6.67;3.47;;;;;;;8.09;76.85;100845.06;5055844;28;20230;-82
2022/11/06 02:51:10;;;;;;;8.37;3.97;;;;;;;8.10;77.78;100845.00;5054950;28;20210;-82
2022/11/06 02:53:42;;;;;;;5.70;3.50;;;;;;;8.09;76.63;100847.72;5054493;28;20213;-82
2022/11/06 02:56:13;;;;;;;4.63;3.50;;;;;;;8.08;77.05;100846.00;5051959;28;20198;-82
2022/11/06 02:58:44;;;;;;;7.77;3.53;;;;;;;8.09;77.53;100837.09;5059944;28;20584;-81
2022/11/06 03:01:15;;;;;;;7.23;3.50;;;;;;;8.08;77.18;100841.56;5054931;28;20219;-82
2022/11/06 03:03:47;;;;;;;8.77;3.70;;;;;;;8.07;77.59;100831.88;5059047;28;20407;-82
2022/11/06 03:06:20;;;;;;;8.47;4.50;;;;;;;8.07;77.60;100831.00;5053934;28;20316;-82
2022/11/06 03:08:51;;;;;;;9.37;4.83;;;;;;;8.07;78.10;100831.88;5052782;28;20248;-81
2022/11/06 03:11:20;;;;;;;14.83;7.10;;;;;;;8.08;77.80;100836.25;5057983;28;20217;-82
2022/11/06 03:13:54;;;;;;;11.73;6.40;;;;;;;8.08;77.23;100846.84;5060564;28;20209;-82
2022/11/06 03:16:31;;;;;;;8.57;4.40;;;;;;;8.08;77.77;100843.34;5056562;28;20205;-81
2022/11/06 03:19:06;;;;;;;7.73;3.97;;;;;;;8.06;77.75;100839.94;5057462;28;20733;-82
2022/11/06 03:21:39;;;;;;;6.47;3.60;;;;;;;8.04;77.71;100841.81;5049284;28;20209;-81
2022/11/06 03:24:14;;;;;;;4.53;3.40;;;;;;;8.03;77.40;100838.28;5059351;28;20656;-81
2022/11/06 03:26:45;;;;;;;5.57;3.63;;;;;;;8.00;77.24;100827.81;5052669;28;20197;-81
2022/11/06 03:29:18;;;;;;;6.70;3.90;;;;;;;7.98;77.20;100825.25;5054510;28;20229;-82
2022/11/06 03:31:49;;;;;;;5.23;3.37;;;;;;;7.97;77.68;100825.31;5055749;28;20335;-82
2022/11/06 03:34:25;;;;;;;5.53;3.70;;;;;;;7.94;77.85;100810.41;5052951;28;20251;-82
2022/11/06 03:36:57;;;;;;;4.30;3.67;;;;;;;7.92;77.72;100814.06;5051695;28;20711;-82
2022/11/06 03:39:30;;;;;;;5.37;3.93;;;;;;;7.90;77.52;100814.16;5059878;28;20233;-82
2022/11/06 03:42:02;;;;;;;5.87;3.60;;;;;;;7.87;77.58;100816.13;5055975;28;20221;-82
2022/11/06 03:44:32;;;;;;;5.90;3.97;;;;;;;7.84;77.58;100801.22;5053819;28;20213;-81
2022/11/06 03:47:03;;;;;;;6.20;3.63;;;;;;;7.83;77.35;100803.94;5056877;28;20201;-82
2022/11/06 03:49:34;;;;;;;4.90;3.00;;;;;;;7.80;77.75;100807.59;5058227;28;20202;-81
2022/11/06 03:52:06;;;;;;;5.13;3.37;;;;;;;7.78;77.93;100812.13;5054566;28;20704;-81
2022/11/06 03:54:38;;;;;;;5.47;4.20;;;;;;;7.75;77.93;100822.00;5059242;28;20588;-82
2022/11/06 03:57:11;;;;;;;4.87;3.47;;;;;;;7.73;78.51;100810.63;5058874;28;20652;-81
2022/11/06 03:59:44;;;;;;;6.37;3.70;;;;;;;7.72;78.25;100815.06;5060725;28;20194;-81
2022/11/06 04:02:13;;;;;;;4.97;3.47;;;;;;;7.73;78.42;100805.31;5053969;28;20216;-81
2022/11/06 04:04:46;;;;;;;6.03;3.53;;;;;;;7.70;78.28;100801.03;5049096;28;20206;-81
2022/11/06 04:07:15;;;;;;;4.80;3.53;;;;;;;7.69;78.05;100814.38;5063499;28;20201;-79
2022/11/06 04:15:22;;;;;;;6.80;3.27;;;;;;;7.59;78.74;100803.34;5057821;28;20211;-81
2022/11/06 04:17:48;;;;;;;4.70;3.20;;;;;;;7.58;78.63;100796.31;5057777;28;20241;-81
2022/11/06 04:23:08;;;;;;;3.30;3.00;;;;;;;7.54;78.98;100814.16;5055859;28;20237;-81
2022/11/06 04:28:37;;;;;;;4.83;3.60;;;;;;;7.54;78.88;100811.50;5054013;28;20236;-79
2022/11/06 04:31:10;;;;;;;6.50;3.37;;;;;;;7.51;79.56;100810.81;5056072;28;20216;-80
2022/11/06 04:33:49;;;;;;;4.23;2.80;;;;;;;7.50;79.40;100812.63;5058279;28;20194;-80
2022/11/06 04:36:24;;;;;;;6.00;3.50;;;;;;;7.51;79.14;100809.03;5052065;28;20205;-80
2022/11/06 04:38:59;;;;;;;6.00;4.03;;;;;;;7.50;79.37;100803.81;5068078;28;20311;-80
2022/11/06 04:41:34;;;;;;;6.77;3.80;;;;;;;7.50;79.94;100809.09;5050337;28;20201;-80
2022/11/06 04:44:04;;;;;;;5.10;3.17;;;;;;;7.49;79.75;100813.53;5054959;28;21731;-81
2022/11/06 04:46:36;;;;;;;5.87;3.77;;;;;;;7.50;80.26;100806.44;5050915;28;20578;-80
2022/11/06 04:49:05;;;;;;;6.37;4.07;;;;;;;7.48;80.01;100803.00;5055784;28;20229;-81
2022/11/06 04:51:35;;;;;;;8.53;4.00;;;;;;;7.47;79.92;100802.16;5054271;28;20212;-79
2022/11/06 04:54:02;;;;;;;8.03;3.80;;;;;;;7.47;80.18;100807.44;5054695;28;20582;-80
2022/11/06 04:56:31;;;;;;;13.00;4.63;;;;;;;7.48;80.22;100810.97;5054027;28;20221;-80
2022/11/06 04:59:00;;;;;;;8.27;4.17;;;;;;;7.47;79.99;100804.81;5057198;28;20221;-79
2022/11/06 05:01:27;;;;;;;8.10;4.40;;;;;;;7.50;80.59;100804.66;5055689;28;20213;-80
2022/11/06 05:03:55;;;;;;;8.53;4.53;;;;;;;7.51;80.54;100805.53;5050773;28;20675;-80
2022/11/06 05:06:21;;;;;;;4.97;3.60;;;;;;;7.53;80.55;100801.84;5058847;28;20231;-81
2022/11/06 05:08:48;;;;;;;5.93;3.90;;;;;;;7.55;80.71;100796.47;5060344;28;20221;-81
2022/11/06 05:11:14;;;;;;;7.37;4.20;;;;;;;7.55;81.15;100796.47;5054529;28;20221;-81
2022/11/06 05:13:41;;;;;;;5.87;3.67;;;;;;;7.54;80.85;100792.94;5051927;28;20653;-80
2022/11/06 05:16:08;;;;;;;5.87;3.47;;;;;;;7.57;81.41;100810.50;5060646;28;20210;-81
2022/11/06 05:18:34;;;;;;;4.73;3.63;;;;;;;7.57;80.78;100814.00;5056461;28;20228;-82
2022/11/06 05:23:47;;;;;;;7.83;4.00;;;;;;;7.63;80.65;100805.78;5057544;28;20228;-80
2022/11/06 05:26:14;;;;;;;6.53;4.13;;;;;;;7.68;81.15;100799.41;5044528;28;20206;-80
2022/11/06 05:28:40;;;;;;;6.20;4.07;;;;;;;7.69;81.00;100798.47;5055620;28;20224;-81
2022/11/06 05:31:07;;;;;;;7.93;4.13;;;;;;;7.69;81.21;100798.47;5064743;28;20353;-81
2022/11/06 05:33:33;;;;;;;7.80;4.27;;;;;;;7.69;81.36;100804.63;5057737;28;20201;-82
2022/11/06 05:36:03;;;;;;;9.40;4.03;;;;;;;7.72;80.42;100796.50;5055084;28;20248;-83
2022/11/06 05:38:29;;;;;;;7.10;4.40;;;;;;;7.71;80.89;100788.63;5063394;28;20224;-82
2022/11/06 05:40:56;;;;;;;5.80;4.40;;;;;;;7.70;80.38;100787.78;5054331;28;20645;-81
2022/11/06 05:43:23;;;;;;;4.83;3.90;;;;;;;7.71;80.95;100791.28;5066951;28;20233;-82
2022/11/06 05:45:49;;;;;;;8.10;3.80;;;;;;;7.70;80.81;100789.59;5055978;28;20216;-81
2022/11/06 05:48:15;;;;;;;5.67;3.70;;;;;;;7.73;80.95;100766.41;5055176;28;20221;-81
2022/11/06 05:50:42;;;;;;;7.00;4.30;;;;;;;7.77;80.45;100769.75;5056733;28;20217;-81
2022/11/06 05:53:10;;;;;;;9.60;4.47;;;;;;;7.79;80.08;100773.19;5054579;28;20205;-82
2022/11/06 05:55:36;;;;;;;6.90;3.97;;;;;;;7.83;80.70;100756.22;5056697;28;20213;-81
2022/11/06 05:58:03;;;;;;;7.83;4.57;;;;;;;7.84;80.05;100756.13;5070186;28;20228;-83
2022/11/06 06:00:29;;;;;;;5.83;4.23;;;;;;;7.85;79.87;100747.25;5065614;28;20606;-82
2022/11/06 06:02:56;;;;;;;5.47;4.20;;;;;;;7.88;79.98;100746.25;5070272;28;20237;-81
2022/11/06 06:05:22;;;;;;;7.43;4.33;;;;;;;7.86;80.12;100751.63;5055507;28;20217;-81
2022/11/06 06:07:49;;;;;;;7.70;4.10;;;;;;;7.86;80.18;100748.13;5061075;28;20233;-81
2022/11/06 06:10:17;;;;;;;7.00;4.17;;;;;;;7.88;79.82;100743.59;5056060;28;20218;-81
2022/11/06 06:12:43;;;;;;;5.83;4.47;;;;;;;7.89;80.15;100758.53;5058768;28;20201;-81
2022/11/06 06:15:13;;;;;;;8.30;4.60;;;;;;;7.86;79.57;100754.28;5056940;28;20208;-81
2022/11/06 06:17:40;;;;;;;6.43;4.40;;;;;;;7.86;79.73;100766.66;5058804;28;20224;-81
2022/11/06 06:20:08;;;;;;;9.20;4.67;;;;;;;7.86;80.26;100761.38;5064451;28;20575;-81
2022/11/06 06:22:35;;;;;;;6.77;4.23;;;;;;;7.85;79.99;100762.31;5057655;28;20593;-82
2022/11/06 06:25:01;;;;;;;5.33;3.83;;;;;;;7.86;79.73;100764.03;5060255;28;20229;-82
2022/11/06 06:27:30;;;;;;;8.20;4.97;;;;;;;7.85;80.14;100759.66;5062071;28;20718;-81
2022/11/06 06:29:56;;;;;;;8.90;4.63;;;;;;;7.84;80.41;100763.22;5061302;28;20288;-81
2022/11/06 06:32:23;;;;;;;8.27;4.70;;;;;;;7.83;79.86;100772.97;5055973;28;20209;-82
2022/11/06 06:34:49;;;;;;;7.17;4.43;;;;;;;7.83;79.95;100764.16;5065083;28;20204;-81
2022/11/06 06:37:16;;;;;;;5.50;4.60;;;;;;;7.82;80.27;100762.44;5055423;28;20197;-81
2022/11/06 06:39:42;;;;;;;8.13;4.43;;;;;;;7.83;80.58;100764.16;5066156;28;20205;-81
2022/11/06 06:42:08;;;;;;;7.77;4.93;;;;;;;7.84;80.39;100765.88;5057036;28;20222;-80
2022/11/06 06:44:36;;;;;;;7.63;4.93;;;;;;;7.81;80.68;100766.03;5056341;28;20205;-82
2022/11/06 06:47:03;;;;;;;7.20;4.47;;;;;;;7.81;80.10;100752.78;5065649;28;20216;-81
2022/11/06 06:49:29;;;;;;;8.07;5.63;;;;;;;7.79;80.15;100752.84;5055752;28;20213;-80
2022/11/06 06:51:56;;;;;;;7.07;4.77;;;;;;;7.78;80.62;100751.13;5051886;28;20685;-81
2022/11/06 06:54:22;;;;;;;7.67;4.23;;;;;;;7.75;80.64;100753.94;5053206;28;20668;-81
2022/11/06 06:56:49;;;;;;;7.10;4.47;;;;;;;7.74;79.98;100749.56;5058732;28;20210;-81
2022/11/06 06:59:15;;;;;;;6.70;4.57;;;;;;;7.73;80.03;100755.81;5047794;28;20226;-81
2022/11/06 07:01:43;;;;;;;7.53;5.50;;;;;;;7.71;80.48;100754.16;5053695;28;20204;-80
2022/11/06 07:04:10;;;;;;;7.33;5.27;;;;;;;7.69;80.57;100759.56;5054708;28;20240;-82
2022/11/06 07:06:37;;;;;;;7.27;5.50;;;;;;;7.68;80.16;100763.16;5064186;28;20201;-81
2022/11/06 07:09:03;;;;;;;8.57;5.03;;;;;;;7.66;80.40;100765.88;5060629;28;20229;-82
2022/11/06 07:11:30;;;;;;;6.53;5.20;;;;;;;7.66;81.40;100762.34;5056066;28;20198;-81
2022/11/06 07:13:56;;;;;;;8.93;5.03;;;;;;;7.66;81.01;100765.88;5054549;28;20201;-81
2022/11/06 07:16:24;;;;;;;6.60;4.77;;;;;;;7.65;80.94;100761.50;5053966;28;20218;-82
2022/11/06 07:18:51;;;;;;;8.53;5.30;;;;;;;7.65;80.86;100750.91;5053555;28;20323;-81
2022/11/06 07:21:18;;;;;;;6.13;4.97;;;;;;;7.64;81.38;100754.47;5054516;28;20210;-80
2022/11/06 07:23:47;;;;;;;8.13;4.90;;;;;;;7.63;80.87;100766.00;5054093;28;20218;-81
2022/11/06 07:26:14;;;;;;;6.77;4.97;;;;;;;7.65;81.26;100758.84;5063979;28;20214;-81
2022/11/06 07:28:40;;;;;;;7.40;4.47;;;;;;;7.65;81.43;100750.91;5066379;28;20342;-81
2022/11/06 07:31:08;;;;;;;6.43;4.70;;;;;;;7.67;82.04;100753.47;5056359;28;20696;-83
2022/11/06 07:33:35;;;;;;;9.07;5.33;;;;;;;7.69;81.73;100745.44;5065815;28;20197;-82
2022/11/06 07:36:04;;;;;;;8.03;5.40;;;;;;;7.70;81.19;100741.88;5060316;28;20205;-83
2022/11/06 07:38:34;;;;;;;7.00;5.17;;;;;;;7.71;81.91;100735.59;5059923;28;20234;-83
2022/11/06 07:41:05;;;;;;;7.50;4.87;;;;;;;7.75;82.12;100739.81;5064045;28;20202;-82
2022/11/06 07:43:31;;;;;;;6.93;4.50;;;;;;;7.76;81.23;100736.22;5058421;28;20224;-81
2022/11/06 07:45:59;;;;;;;7.57;5.10;;;;;;;7.77;81.25;100736.16;5055968;28;20208;-81
2022/11/06 07:48:25;;;;;;;5.97;5.17;;;;;;;7.78;81.69;100740.53;5057026;28;20221;-81
2022/11/06 07:50:52;;;;;;;7.73;5.50;;;;;;;7.81;81.98;100744.81;5055959;28;20209;-83
2022/11/06 07:53:19;;;;;;;8.57;5.03;;;;;;;7.81;81.70;100739.53;5056804;28;20202;-80
2022/11/06 07:55:49;;;;;;;9.70;5.87;;;;;;;7.81;81.23;100744.81;5056853;28;20205;-81
2022/11/06 07:58:15;;;;;;;9.53;5.47;;;;;;;7.84;81.68;100742.03;5059077;28;20626;-81
2022/11/06 08:00:46;;;;;;;11.87;5.83;;;;;;;7.85;81.65;100741.09;5053416;28;20283;-81
2022/11/06 08:03:12;;;;;;;8.50;5.40;;;;;;;7.88;81.75;100736.47;5059770;28;20217;-81
2022/11/06 08:05:39;;;;;;;10.20;5.87;;;;;;;7.93;82.17;100734.44;5054508;28;20652;-83
2022/11/06 08:08:05;;;;;;;8.30;5.23;;;;;;;7.99;82.25;100733.28;5060320;28;20718;-81
2022/11/06 08:10:33;;;;;;;5.60;4.73;;;;;;;8.07;82.80;100733.72;5056024;28;20206;-82
2022/11/06 08:13:00;;;;;;;7.43;4.83;;;;;;;8.13;82.48;100743.16;5048606;28;20202;-84
2022/11/06 08:15:29;;;;;;;8.37;4.80;;;;;;;8.22;82.11;100750.66;5048708;28;20213;-83
2022/11/06 08:17:58;;;;;;;6.23;5.03;;;;;;;8.27;82.21;100753.91;5049022;28;20237;-84
2022/11/06 08:20:25;;;;;;;5.97;4.30;;;;;;;8.33;82.12;100748.34;5051901;28;20208;-84
2022/11/06 08:22:51;;;;;;;6.97;4.67;;;;;;;8.38;81.45;100740.16;5050489;28;20232;-83
2022/11/06 08:25:18;;;;;;;6.93;4.07;;;;;;;8.40;80.92;100746.22;5051003;28;20562;-84
2022/11/06 08:27:46;;;;;;;6.53;4.40;;;;;;;8.40;80.69;100751.53;5049555;28;20728;-84
2022/11/06 08:30:14;;;;;;;5.53;4.20;;;;;;;8.39;80.11;100750.69;5052115;28;20201;-84
2022/11/06 08:32:41;;;;;;;6.17;4.43;;;;;;;8.38;80.26;100740.16;5052329;28;20225;-84
2022/11/06 08:35:08;;;;;;;7.53;4.40;;;;;;;8.40;79.96;100738.28;5049679;28;20292;-84
2022/11/06 08:37:36;;;;;;;7.20;4.43;;;;;;;8.42;79.83;100737.22;5051703;28;20224;-83
2022/11/06 08:40:03;;;;;;;10.63;4.90;;;;;;;8.51;80.72;100742.06;5051642;28;20234;-83
2022/11/06 08:42:30;;;;;;;8.37;5.20;;;;;;;8.63;80.87;100740.53;5057103;28;20732;-84
2022/11/06 08:44:57;;;;;;;6.07;4.80;;;;;;;8.75;80.63;100744.34;5056890;28;20212;-85
2022/11/06 08:47:24;;;;;;;6.13;4.37;;;;;;;8.88;81.25;100740.06;5063588;28;20218;-84
2022/11/06 08:49:50;;;;;;;7.33;4.50;;;;;;;9.04;80.82;100747.09;5054963;28;20205;-83
2022/11/06 08:52:17;;;;;;;5.17;3.53;;;;;;;9.18;80.80;100724.22;5050336;28;20206;-85
2022/11/06 08:54:43;;;;;;;6.40;3.83;;;;;;;9.32;79.67;100724.28;5049111;28;20198;-84
2022/11/06 08:57:10;;;;;;;5.33;3.67;;;;;;;9.44;79.07;100722.75;5050852;28;21350;-84
2022/11/06 08:59:36;;;;;;;6.50;3.70;;;;;;;9.51;78.08;100721.44;5050695;28;20244;-83
2022/11/06 09:02:04;;;;;;;5.30;3.33;;;;;;;9.56;78.03;100714.91;5048580;28;20206;-83
2022/11/06 09:04:30;;;;;;;3.93;3.23;;;;;;;9.59;77.71;100709.41;5049854;28;20247;-83
2022/11/06 09:06:57;;;;;;;6.13;3.80;;;;;;;9.64;76.33;100710.03;5051990;28;20205;-83
2022/11/06 09:09:30;;;;;;;6.20;3.13;;;;;;;9.66;76.08;100715.25;5046800;28;20275;-83
2022/11/06 09:11:57;;;;;;;5.30;3.47;;;;;;;9.68;75.74;100700.03;5046139;28;20205;-83
2022/11/06 09:14:24;;;;;;;6.43;3.60;;;;;;;9.71;75.87;100706.03;5055237;28;20201;-83
2022/11/06 09:16:50;;;;;;;5.33;3.57;;;;;;;9.75;75.03;100702.25;5053750;28;20671;-82
2022/11/06 09:19:18;;;;;;;5.80;3.70;;;;;;;9.79;74.21;100699.41;5049516;28;20228;-83
2022/11/06 09:21:45;;;;;;;5.13;3.57;;;;;;;9.75;74.49;100701.41;5040220;28;20224;-83
2022/11/06 09:24:12;;;;;;;5.03;3.00;;;;;;;9.76;74.74;100703.09;5055457;28;20228;-83
2022/11/06 09:26:38;;;;;;;5.57;3.20;;;;;;;9.75;74.49;100706.72;5052117;28;20209;-84
2022/11/06 09:29:05;;;;;;;5.67;3.10;;;;;;;9.79;74.61;100710.91;5056462;28;20228;-84
2022/11/06 09:31:32;;;;;;;4.87;3.07;;;;;;;9.81;74.50;100716.16;5058597;28;20269;-83
2022/11/06 09:33:58;;;;;;;4.47;3.10;;;;;;;9.82;74.57;100708.06;5053100;28;20206;-84
2022/11/06 09:36:26;;;;;;;3.93;3.53;;;;;;;9.88;74.38;100701.50;5059185;28;20205;-83
2022/11/06 09:38:52;;;;;;;6.03;3.77;;;;;;;9.94;74.07;100690.53;5061380;28;20236;-83
2022/11/06 09:41:24;;;;;;;6.00;3.33;;;;;;;9.96;73.84;100691.28;5054208;28;20205;-83
2022/11/06 09:44:05;;;;;;;5.20;3.27;;;;;;;9.97;74.11;100677.03;5051848;28;20692;-83
2022/11/06 09:46:35;;;;;;;6.70;3.53;;;;;;;10.01;74.27;100674.09;5055901;28;20194;-84
2022/11/06 09:52:24;;;;;;;5.10;2.83;;;;;;;10.19;74.57;100674.81;5056272;28;20209;-81
2022/11/06 09:54:55;;;;;;;5.83;3.00;;;;;;;10.28;74.34;100678.72;5056723;28;20206;-82
2022/11/06 09:57:29;;;;;;;5.73;3.00;;;;;;;10.35;74.63;100678.25;5054824;28;20213;-81
2022/11/06 09:59:57;;;;;;;4.97;2.77;;;;;;;10.42;74.15;100682.22;5054983;28;20221;-82
2022/11/06 10:02:30;;;;;;;5.00;3.03;;;;;;;10.49;73.58;100676.53;5048701;28;20270;-80
2022/11/06 10:05:05;;;;;;;5.23;3.00;;;;;;;10.55;73.58;100676.16;5053163;28;20545;-81
2022/11/06 10:07:35;;;;;;;4.47;2.83;;;;;;;10.59;73.34;100677.66;5055882;28;20221;-83
2022/11/06 10:10:05;;;;;;;5.13;2.80;;;;;;;10.64;73.17;100681.75;5063841;28;20209;-82
2022/11/06 10:12:39;;;;;;;4.23;2.83;;;;;;;10.71;73.20;100679.56;5059759;28;20252;-81
2022/11/06 10:15:18;;;;;;;3.97;2.60;;;;;;;10.74;72.63;100680.22;5059907;28;20223;-81
2022/11/06 10:17:54;;;;;;;6.87;3.17;;;;;;;10.74;71.73;100679.38;5061401;28;20237;-82
2022/11/06 10:20:29;;;;;;;5.03;2.80;;;;;;;10.78;71.63;100672.88;5064858;28;20209;-82
2022/11/06 10:23:04;;;;;;;4.00;2.60;;;;;;;10.82;71.66;100679.72;5060814;28;20816;-82
2022/11/06 10:25:44;;;;;;;3.70;2.57;;;;;;;10.84;71.51;100675.16;5055193;28;20208;-82
2022/11/06 10:29:15;;;;;;;5.20;3.13;;;;;;;10.88;71.00;100671.34;5056458;28;20229;-84
2022/11/06 10:31:49;;;;;;;4.53;2.73;;;;;;;10.90;70.94;100666.78;5060859;28;20665;-81
2022/11/06 10:34:21;;;;;;;3.53;2.20;;;;;;;10.97;70.71;100657.41;5056924;28;20182;-81
2022/11/06 10:36:54;;;;;;;4.57;2.50;;;;;;;10.98;70.30;100656.47;5057708;28;20190;-78
2022/11/06 10:39:27;;;;;;;4.50;2.63;;;;;;;11.04;69.65;100649.88;5057625;28;20229;-80
2022/11/06 10:41:58;;;;;;;4.30;2.17;;;;;;;11.04;69.39;100661.41;5056398;28;20285;-79
2022/11/06 10:44:29;;;;;;;4.47;2.30;;;;;;;11.04;69.75;100650.75;5056048;28;20222;-80
2022/11/06 10:47:00;;;;;;;4.90;2.10;;;;;;;11.08;69.32;100652.25;5056725;28;20191;-80
2022/11/06 10:49:36;;;;;;;3.03;2.07;;;;;;;11.09;68.31;100640.66;5057347;28;20229;-80
2022/11/06 10:52:17;;;;;;;3.57;2.33;;;;;;;11.06;68.04;100632.00;5056837;28;20190;-79
2022/11/06 10:54:59;;;;;;;4.97;2.70;;;;;;;11.02;67.94;100622.47;5059635;28;20198;-80
2022/11/06 10:57:36;;;;;;;2.77;2.20;;;;;;;11.04;67.21;100618.75;5054616;28;20209;-82
2022/11/06 11:00:03;;;;;;;3.30;2.13;;;;;;;11.04;67.27;100616.09;5060049;28;20216;-83
2022/11/06 11:02:33;;;;;;;5.47;2.23;;;;;;;11.09;66.36;100618.47;5063548;28;20211;-84
2022/11/06 11:05:00;;;;;;;5.20;3.73;;;;;;;11.09;66.26;100616.66;5058041;28;20214;-83
2022/11/06 11:07:30;;;;;;;4.60;1.63;;;;;;;11.10;65.68;100604.19;5063141;28;20204;-83
2022/11/06 11:10:00;;;;;;;3.70;2.20;;;;;;;11.10;65.92;100599.72;5060967;28;20203;-82
2022/11/06 11:12:28;;;;;;;6.13;2.00;;;;;;;11.13;65.95;100602.16;5064081;28;20273;-82
2022/11/06 11:15:10;;;;;;;3.93;1.80;;;;;;;11.18;66.06;100593.00;5058758;28;20206;-83
2022/11/06 11:17:37;;;;;;;2.20;1.67;;;;;;;11.22;66.11;100598.03;5069948;28;20239;-84
2022/11/06 11:20:25;;;;;;;3.37;1.80;;;;;;;11.27;65.42;100579.91;5058649;28;20210;-84
2022/11/06 11:23:05;;;;;;;3.10;1.67;;;;;;;11.33;64.76;100576.81;5053095;28;20201;-84
2022/11/06 11:25:33;;;;;;;5.30;2.27;;;;;;;11.34;64.63;100562.53;5056550;28;20233;-84
2022/11/06 11:28:00;;;;;;;5.00;3.13;;;;;;;11.38;64.45;100563.19;5051924;28;20237;-83
2022/11/06 11:30:28;;;;;;;4.13;1.90;;;;;;;11.43;64.13;100556.59;5058410;28;20225;-83
2022/11/06 11:32:56;;;;;;;3.20;1.97;;;;;;;11.45;64.16;100551.16;5053572;28;20203;-83
2022/11/06 11:35:27;;;;;;;1.97;1.70;;;;;;;11.49;63.83;100549.97;5059937;28;20200;-84
2022/11/06 11:38:06;;;;;;;2.67;1.70;;;;;;;11.51;63.07;100537.38;5055899;28;20217;-84
2022/11/06 11:40:36;;;;;;;3.07;1.93;;;;;;;11.56;63.22;100537.06;5061113;28;20199;-83
2022/11/06 11:43:25;;;;;;;2.93;1.60;;;;;;;11.60;62.32;100544.75;5052656;28;20278;-82
2022/11/06 11:46:17;;;;;;;2.47;1.50;;;;;;;11.64;62.46;100534.75;5052367;28;20223;-82
2022/11/06 11:48:45;;;;;;;3.67;1.90;;;;;;;11.66;62.33;100536.31;5055584;28;20226;-84
2022/11/06 11:51:19;;;;;;;3.07;2.30;;;;;;;11.65;62.64;100531.94;5051268;28;20209;-85
2022/11/06 11:53:46;;;;;;;4.57;1.80;;;;;;;11.71;62.47;100530.66;5049380;28;20670;-86
2022/11/06 11:56:18;;;;;;;5.23;2.00;;;;;;;11.70;62.21;100513.81;5055200;28;20214;-84
2022/11/06 11:58:50;;;;;;;3.27;1.60;;;;;;;11.70;62.43;100523.63;5052842;28;20225;-83
2022/11/06 12:01:17;;;;;;;7.77;1.80;;;;;;;11.75;62.23;100518.81;5053366;28;20208;-85
2022/11/06 12:03:51;;;;;;;3.70;2.03;;;;;;;11.76;62.27;100508.06;5055705;28;20203;-84